Time;durP1;ratioP1;P1;durP2;ratioP2;P2;SDS_P1;SDS_P2;PMS_P1;PMS_P2;Temp;Humidity;BMP_temperature;BMP_pressure;BME280_temperature;BME280_humidity;BME280_pressure;Samples;Min_cycle;Max_cycle;Signal;HPM_P1;HPM_P2
2023/05/03 00:01:49;;;;;;;4.43;2.42;;;7.40;99.90;;;;;;5007020;28;20048;-61
2023/05/03 00:04:15;;;;;;;6.35;2.65;;;7.40;99.90;;;;;;5025565;28;20037;-61
2023/05/03 00:06:43;;;;;;;6.85;2.53;;;7.50;99.90;;;;;;5040335;28;20038;-59
2023/05/03 00:09:09;;;;;;;6.40;2.72;;;7.50;99.90;;;;;;5020816;28;20038;-62
2023/05/03 00:11:35;;;;;;;4.25;2.38;;;7.50;99.90;;;;;;5027311;28;20522;-59
2023/05/03 00:14:01;;;;;;;5.53;2.47;;;7.40;99.90;;;;;;5022583;28;20519;-58
2023/05/03 00:16:27;;;;;;;8.27;3.63;;;7.50;99.90;;;;;;5026946;28;20045;-59
2023/05/03 00:18:52;;;;;;;5.18;2.80;;;7.50;99.90;;;;;;5025283;28;20069;-59
2023/05/03 00:21:18;;;;;;;4.90;2.90;;;7.50;99.90;;;;;;5027000;28;20041;-59
2023/05/03 00:23:44;;;;;;;6.43;3.17;;;7.50;99.90;;;;;;5025074;28;20041;-59
2023/05/03 00:26:10;;;;;;;5.18;3.22;;;7.50;99.90;;;;;;5026803;28;20052;-58
2023/05/03 00:28:36;;;;;;;5.63;2.35;;;7.60;99.90;;;;;;5031976;28;20034;-59
2023/05/03 00:31:09;;;;;;;6.95;2.80;;;7.60;99.90;;;;;;5026787;28;20034;-59
2023/05/03 00:33:35;;;;;;;6.72;2.58;;;7.60;99.90;;;;;;5024833;28;20037;-59
2023/05/03 00:36:14;;;;;;;6.32;2.67;;;7.60;99.90;;;;;;5026517;28;20037;-58
2023/05/03 00:38:41;;;;;;;5.38;2.50;;;7.70;99.90;;;;;;5025941;28;20501;-59
2023/05/03 00:41:09;;;;;;;5.18;3.13;;;7.70;99.90;;;;;;5027322;28;20450;-59
2023/05/03 00:43:36;;;;;;;4.72;2.65;;;7.60;99.90;;;;;;5027629;28;20163;-59
2023/05/03 00:46:05;;;;;;;5.20;3.10;;;7.60;99.90;;;;;;5028289;28;20549;-59
2023/05/03 00:48:31;;;;;;;4.32;2.55;;;7.60;99.90;;;;;;5015044;28;20040;-59
2023/05/03 00:50:57;;;;;;;5.82;2.75;;;7.70;99.90;;;;;;5014459;28;20037;-57
2023/05/03 00:53:23;;;;;;;6.53;1.90;;;7.70;99.90;;;;;;5030359;28;20037;-58
2023/05/03 00:55:52;;;;;;;3.90;2.40;;;7.70;99.90;;;;;;5011987;28;20033;-57
2023/05/03 00:58:18;;;;;;;4.70;2.40;;;7.80;99.90;;;;;;5024179;28;20132;-59
2023/05/03 01:00:44;;;;;;;5.25;2.78;;;7.80;99.90;;;;;;5030878;28;20076;-57
2023/05/03 01:03:10;;;;;;;7.15;2.65;;;7.80;99.90;;;;;;5028611;28;20069;-59
2023/05/03 01:06:22;;;;;;;4.13;2.60;;;7.80;99.90;;;;;;5026382;28;20488;-59
2023/05/03 01:09:11;;;;;;;4.50;2.75;;;7.80;99.90;;;;;;5026894;28;20500;-58
2023/05/03 01:11:51;;;;;;;6.13;2.80;;;7.80;99.90;;;;;;5031086;28;20099;-58
2023/05/03 01:14:45;;;;;;;6.38;2.67;;;7.70;99.90;;;;;;5030309;28;20068;-57
2023/05/03 01:17:14;;;;;;;5.05;2.75;;;7.80;99.90;;;;;;5027310;28;20527;-58
2023/05/03 01:19:55;;;;;;;6.30;3.30;;;7.80;99.90;;;;;;5028573;28;20037;-58
2023/05/03 01:22:43;;;;;;;5.28;3.05;;;7.80;99.90;;;;;;5009490;28;20124;-59
2023/05/03 01:25:10;;;;;;;4.68;2.53;;;7.80;99.90;;;;;;5027137;28;20100;-59
2023/05/03 01:27:37;;;;;;;5.10;3.00;;;7.80;99.90;;;;;;5023973;28;20053;-57
2023/05/03 01:30:04;;;;;;;5.78;2.47;;;7.80;99.90;;;;;;5025298;28;20034;-57
2023/05/03 01:32:49;;;;;;;3.92;2.42;;;7.90;99.90;;;;;;5030402;28;20045;-58
2023/05/03 01:35:52;;;;;;;3.50;2.38;;;7.80;99.90;;;;;;5023546;28;20045;-59
2023/05/03 01:38:20;;;;;;;4.45;2.35;;;7.80;99.90;;;;;;5026732;28;20099;-59
2023/05/03 01:40:52;;;;;;;4.32;2.70;;;7.90;99.90;;;;;;5022660;28;20065;-60
2023/05/03 01:43:19;;;;;;;5.57;2.67;;;8.00;99.90;;;;;;5026783;28;20515;-59
2023/05/03 01:45:45;;;;;;;8.93;3.38;;;8.00;99.90;;;;;;5024302;28;20072;-59
2023/05/03 01:48:16;;;;;;;4.45;2.22;;;8.00;99.90;;;;;;5014216;28;20087;-59
2023/05/03 01:50:41;;;;;;;4.60;2.40;;;8.00;99.90;;;;;;5010581;28;20052;-58
2023/05/03 01:53:07;;;;;;;5.53;2.80;;;8.00;99.90;;;;;;5025476;28;20116;-59
2023/05/03 01:55:33;;;;;;;6.53;2.50;;;8.00;99.90;;;;;;5030130;28;20041;-59
2023/05/03 01:57:59;;;;;;;6.13;2.50;;;7.90;99.90;;;;;;5026689;28;20033;-59
2023/05/03 02:00:25;;;;;;;3.97;2.42;;;7.90;99.90;;;;;;5031661;28;20112;-59
2023/05/03 02:02:51;;;;;;;5.80;2.60;;;8.00;99.90;;;;;;5020513;28;20046;-59
2023/05/03 02:05:16;;;;;;;3.22;2.30;;;8.00;99.90;;;;;;5030420;28;20056;-59
2023/05/03 02:07:42;;;;;;;3.67;2.15;;;8.00;99.90;;;;;;5024746;28;20404;-59
2023/05/03 02:10:13;;;;;;;5.25;2.55;;;8.10;99.90;;;;;;5023554;28;20128;-59
2023/05/03 02:12:43;;;;;;;6.38;3.15;;;8.10;99.90;;;;;;5021905;28;20056;-59
2023/05/03 02:15:10;;;;;;;4.93;2.30;;;8.00;99.90;;;;;;5019544;28;20096;-57
2023/05/03 02:17:36;;;;;;;4.03;2.30;;;8.00;99.90;;;;;;5027791;28;20114;-59
2023/05/03 02:20:09;;;;;;;5.65;2.45;;;8.10;99.90;;;;;;5029647;28;20033;-59
2023/05/03 02:22:35;;;;;;;8.07;3.93;;;8.10;99.90;;;;;;5028065;28;20037;-58
2023/05/03 02:25:01;;;;;;;5.30;2.28;;;8.10;99.90;;;;;;5026535;28;20071;-59
2023/05/03 02:27:27;;;;;;;4.63;2.60;;;8.10;99.90;;;;;;5030900;28;20052;-59
2023/05/03 02:29:53;;;;;;;5.10;2.70;;;8.00;99.90;;;;;;5028341;28;20045;-59
2023/05/03 02:32:20;;;;;;;5.18;2.90;;;8.00;99.90;;;;;;5024090;28;20605;-58
2023/05/03 02:34:47;;;;;;;4.43;3.25;;;8.00;99.90;;;;;;5025295;28;20053;-59
2023/05/03 02:37:14;;;;;;;5.32;2.88;;;7.90;99.90;;;;;;5023881;28;20046;-59
2023/05/03 02:39:39;;;;;;;4.70;2.40;;;7.90;99.90;;;;;;5019858;28;20077;-58
2023/05/03 02:42:05;;;;;;;4.43;2.22;;;7.90;99.90;;;;;;5023604;28;20086;-59
2023/05/03 02:44:31;;;;;;;5.28;2.95;;;7.90;99.90;;;;;;5030453;28;20086;-59
2023/05/03 02:46:57;;;;;;;5.05;2.33;;;7.90;99.90;;;;;;5028412;28;20052;-59
2023/05/03 02:49:22;;;;;;;5.05;2.53;;;7.90;99.90;;;;;;5026867;28;20080;-59
2023/05/03 02:51:48;;;;;;;3.97;2.25;;;7.90;99.90;;;;;;5023878;28;20057;-59
2023/05/03 02:54:14;;;;;;;6.75;2.60;;;7.90;99.90;;;;;;5025169;28;20037;-58
2023/05/03 02:56:39;;;;;;;5.65;3.05;;;7.90;99.90;;;;;;5036433;28;20034;-59
2023/05/03 02:59:05;;;;;;;2.58;2.00;;;7.90;99.90;;;;;;5026855;28;20080;-60
2023/05/03 03:01:32;;;;;;;3.90;2.10;;;7.90;99.90;;;;;;5010057;28;20472;-59
2023/05/03 03:03:58;;;;;;;4.40;2.25;;;7.90;99.90;;;;;;5026549;28;20389;-59
2023/05/03 03:06:24;;;;;;;3.55;2.40;;;7.90;99.90;;;;;;5042922;28;20044;-58
2023/05/03 03:08:50;;;;;;;5.57;2.60;;;8.00;99.90;;;;;;5028651;28;20033;-58
2023/05/03 03:11:17;;;;;;;4.57;2.08;;;8.00;99.90;;;;;;5023498;28;20567;-57
2023/05/03 03:13:42;;;;;;;5.82;2.42;;;8.00;99.90;;;;;;5031245;28;20488;-58
2023/05/03 03:16:09;;;;;;;5.30;2.15;;;7.90;99.90;;;;;;5022618;28;20053;-58
2023/05/03 03:18:35;;;;;;;4.30;1.90;;;7.90;99.90;;;;;;5026558;28;20045;-58
2023/05/03 03:21:02;;;;;;;4.65;2.35;;;7.90;99.90;;;;;;5022479;28;20041;-59
2023/05/03 03:23:28;;;;;;;3.85;2.05;;;7.90;99.90;;;;;;5027699;28;20544;-59
2023/05/03 03:25:54;;;;;;;6.80;2.63;;;7.90;99.90;;;;;;5024300;28;20037;-59
2023/05/03 03:28:20;;;;;;;6.55;2.47;;;7.90;99.90;;;;;;5021622;28;20052;-59
2023/05/03 03:30:45;;;;;;;4.25;2.28;;;7.80;99.90;;;;;;5012560;28;20041;-59
2023/05/03 03:33:11;;;;;;;4.10;2.30;;;7.80;99.90;;;;;;5007328;28;20081;-59
2023/05/03 03:35:37;;;;;;;3.90;1.80;;;7.80;99.90;;;;;;5028905;28;20045;-59
2023/05/03 03:38:03;;;;;;;6.38;2.40;;;7.80;99.90;;;;;;5023381;28;20045;-59
2023/05/03 03:40:29;;;;;;;2.33;1.58;;;7.70;99.90;;;;;;5029901;28;20041;-59
2023/05/03 03:42:55;;;;;;;5.68;2.47;;;7.70;99.90;;;;;;5004401;28;20034;-59
2023/05/03 03:45:20;;;;;;;4.85;2.30;;;7.70;99.90;;;;;;5024000;28;20038;-59
2023/05/03 03:47:46;;;;;;;6.07;2.80;;;7.70;99.90;;;;;;5024499;28;20041;-58
2023/05/03 03:50:12;;;;;;;5.82;2.13;;;7.60;99.90;;;;;;5024547;28;20065;-59
2023/05/03 03:52:37;;;;;;;4.93;1.88;;;7.60;99.90;;;;;;5026471;28;20073;-58
2023/05/03 03:55:04;;;;;;;3.95;2.05;;;7.60;99.90;;;;;;5028086;28;20044;-59
2023/05/03 03:57:30;;;;;;;3.97;1.85;;;7.60;99.90;;;;;;5026218;28;20037;-59
2023/05/03 03:59:58;;;;;;;6.25;2.38;;;7.60;99.90;;;;;;5025251;28;20037;-59
2023/05/03 04:02:24;;;;;;;4.93;2.90;;;7.50;99.90;;;;;;5008697;28;20453;-59
2023/05/03 04:04:50;;;;;;;3.40;2.38;;;7.50;99.90;;;;;;5033625;28;20556;-59
2023/05/03 04:07:16;;;;;;;4.95;2.00;;;7.50;99.90;;;;;;5027212;28;20041;-59
2023/05/03 04:09:42;;;;;;;4.25;2.45;;;7.50;99.90;;;;;;5031511;28;20041;-59
2023/05/03 04:12:07;;;;;;;6.32;2.42;;;7.50;99.90;;;;;;5028503;28;20080;-59
2023/05/03 04:14:33;;;;;;;5.90;2.83;;;7.50;99.90;;;;;;5014906;28;20073;-58
2023/05/03 04:17:00;;;;;;;5.45;2.60;;;7.50;99.90;;;;;;5029836;28;20639;-58
2023/05/03 04:19:26;;;;;;;4.75;2.65;;;7.50;99.90;;;;;;5028451;28;20072;-59
2023/05/03 04:21:52;;;;;;;3.97;2.47;;;7.50;99.90;;;;;;5029781;28;20084;-59
2023/05/03 04:24:17;;;;;;;8.68;2.85;;;7.50;99.90;;;;;;5018227;28;20149;-59
2023/05/03 04:26:43;;;;;;;4.28;2.03;;;7.40;99.90;;;;;;5031084;28;20090;-59
2023/05/03 04:29:10;;;;;;;4.97;2.67;;;7.40;99.90;;;;;;5024831;28;20108;-59
2023/05/03 04:31:37;;;;;;;4.85;2.22;;;7.40;99.90;;;;;;5029320;28;20041;-58
2023/05/03 04:34:02;;;;;;;6.45;2.30;;;7.30;99.90;;;;;;5028260;28;20400;-59
2023/05/03 04:36:28;;;;;;;5.20;2.05;;;7.40;99.90;;;;;;5024373;28;20061;-58
2023/05/03 04:38:55;;;;;;;6.28;2.40;;;7.40;99.90;;;;;;5027977;28;20029;-57
2023/05/03 04:41:21;;;;;;;4.40;2.00;;;7.40;99.90;;;;;;5027975;28;20057;-58
2023/05/03 04:43:47;;;;;;;5.53;2.03;;;7.50;99.90;;;;;;5025804;28;21278;-58
2023/05/03 04:46:13;;;;;;;3.15;2.15;;;7.60;99.90;;;;;;5027523;28;20045;-60
2023/05/03 04:48:38;;;;;;;6.47;2.13;;;7.60;99.90;;;;;;5024437;28;20068;-59
2023/05/03 04:51:04;;;;;;;3.83;2.28;;;7.60;99.90;;;;;;5028070;28;20065;-59
2023/05/03 04:53:30;;;;;;;4.68;2.30;;;7.60;99.90;;;;;;5027991;28;20049;-59
2023/05/03 04:56:01;;;;;;;4.05;2.20;;;7.60;99.90;;;;;;5029135;28;20044;-59
2023/05/03 04:58:27;;;;;;;3.92;2.20;;;7.60;99.90;;;;;;5030783;28;20420;-59
2023/05/03 05:00:53;;;;;;;4.50;2.35;;;7.70;99.90;;;;;;5031216;28;20049;-59
2023/05/03 05:03:19;;;;;;;6.78;2.50;;;7.70;99.90;;;;;;5023984;28;20142;-59
2023/05/03 05:05:45;;;;;;;6.70;1.85;;;7.70;99.90;;;;;;5028608;28;20132;-58
2023/05/03 05:08:10;;;;;;;6.18;2.17;;;7.70;99.90;;;;;;5025632;28;20073;-58
2023/05/03 05:10:39;;;;;;;4.65;1.95;;;7.80;99.90;;;;;;5033064;28;20033;-59
2023/05/03 05:13:06;;;;;;;5.22;2.30;;;7.80;99.90;;;;;;5028923;28;20503;-57
2023/05/03 05:15:32;;;;;;;5.75;1.90;;;7.90;99.90;;;;;;5026174;28;20480;-59
2023/05/03 05:17:58;;;;;;;7.55;2.65;;;7.90;99.90;;;;;;5029941;28;20080;-58
2023/05/03 05:20:24;;;;;;;4.53;2.20;;;8.00;99.90;;;;;;5022385;28;20037;-58
2023/05/03 05:22:50;;;;;;;7.30;2.22;;;8.10;99.90;;;;;;5027967;28;20770;-59
2023/05/03 05:25:15;;;;;;;5.60;2.03;;;8.10;99.90;;;;;;5028519;28;20045;-59
2023/05/03 05:27:41;;;;;;;4.30;2.20;;;8.10;99.90;;;;;;5027056;28;20026;-59
2023/05/03 05:30:07;;;;;;;5.70;2.38;;;8.10;99.90;;;;;;5025636;28;20044;-58
2023/05/03 05:32:33;;;;;;;6.70;2.53;;;8.20;99.90;;;;;;5019290;28;20041;-59
2023/05/03 05:34:59;;;;;;;4.07;2.45;;;8.30;99.90;;;;;;5022472;28;20051;-59
2023/05/03 05:37:26;;;;;;;4.65;2.08;;;8.30;99.90;;;;;;5028620;28;20709;-59
2023/05/03 05:39:52;;;;;;;6.88;2.30;;;8.30;99.90;;;;;;5026727;28;20440;-59
2023/05/03 05:42:18;;;;;;;7.72;2.38;;;8.30;99.90;;;;;;5011236;28;20037;-59
2023/05/03 05:44:43;;;;;;;7.10;2.55;;;8.30;99.90;;;;;;5026601;28;20041;-59
2023/05/03 05:47:10;;;;;;;4.15;2.15;;;8.40;99.90;;;;;;5021255;28;20185;-58
2023/05/03 05:49:35;;;;;;;5.47;2.70;;;8.40;99.90;;;;;;5028318;28;20122;-59
2023/05/03 05:52:01;;;;;;;5.00;2.40;;;8.50;99.90;;;;;;5024235;28;20073;-59
2023/05/03 05:54:27;;;;;;;5.60;2.35;;;8.50;99.90;;;;;;5028580;28;20451;-59
2023/05/03 05:56:53;;;;;;;5.88;2.50;;;8.50;99.90;;;;;;5018853;28;20050;-58
2023/05/03 05:59:19;;;;;;;4.05;2.20;;;8.60;99.90;;;;;;5028382;28;20081;-59
2023/05/03 06:01:45;;;;;;;5.45;2.20;;;8.60;99.90;;;;;;5031784;28;20041;-58
2023/05/03 06:04:11;;;;;;;4.05;2.00;;;8.70;99.90;;;;;;5024407;28;20038;-60
2023/05/03 06:06:37;;;;;;;4.25;2.22;;;8.70;99.90;;;;;;5026445;28;20084;-61
2023/05/03 06:09:03;;;;;;;3.63;1.95;;;8.70;99.90;;;;;;5024848;28;20103;-60
2023/05/03 06:11:30;;;;;;;4.40;2.20;;;8.70;99.90;;;;;;5026863;28;20493;-59
2023/05/03 06:13:56;;;;;;;4.10;2.20;;;8.80;99.90;;;;;;5023376;28;20053;-59
2023/05/03 06:16:23;;;;;;;4.25;1.90;;;8.80;99.90;;;;;;5025160;28;20037;-61
2023/05/03 06:18:51;;;;;;;4.80;2.13;;;8.70;99.90;;;;;;5014964;28;20045;-61
2023/05/03 06:21:17;;;;;;;5.95;2.40;;;8.80;99.90;;;;;;5027013;28;20103;-61
2023/05/03 06:23:43;;;;;;;3.55;2.03;;;8.80;99.90;;;;;;5022164;28;20033;-60
2023/05/03 06:26:08;;;;;;;5.68;1.88;;;8.80;99.90;;;;;;5018563;28;20029;-62
2023/05/03 06:28:34;;;;;;;5.53;1.67;;;8.80;99.90;;;;;;4999267;28;20661;-62
2023/05/03 06:31:01;;;;;;;3.92;1.80;;;8.80;99.90;;;;;;5016807;28;20033;-62
2023/05/03 06:33:26;;;;;;;9.13;2.50;;;8.90;99.90;;;;;;5035420;28;20064;-62
2023/05/03 06:35:52;;;;;;;4.25;1.50;;;9.00;99.90;;;;;;4994668;28;20552;-61
2023/05/03 06:38:18;;;;;;;3.92;1.40;;;9.00;99.90;;;;;;4989687;28;20095;-61
2023/05/03 06:40:45;;;;;;;3.17;1.10;;;9.10;99.90;;;;;;5025494;28;20504;-61
2023/05/03 06:43:10;;;;;;;5.50;1.80;;;9.10;99.90;;;;;;5024248;28;20593;-61
2023/05/03 06:45:38;;;;;;;5.13;2.75;;;9.10;99.90;;;;;;5026268;28;20037;-61
2023/05/03 06:48:04;;;;;;;1.85;1.10;;;9.20;99.90;;;;;;5022323;28;20124;-63
2023/05/03 06:50:29;;;;;;;6.75;1.15;;;9.20;99.90;;;;;;5008013;28;20065;-62
2023/05/03 06:52:55;;;;;;;5.75;1.48;;;9.30;99.90;;;;;;5028548;28;20092;-61
2023/05/03 06:55:21;;;;;;;3.55;1.17;;;9.20;99.90;;;;;;5025290;28;20053;-60
2023/05/03 06:57:47;;;;;;;5.22;1.40;;;9.30;99.90;;;;;;5021313;28;20030;-61
2023/05/03 07:00:15;;;;;;;4.03;1.20;;;9.40;99.90;;;;;;5023888;28;20103;-62
2023/05/03 07:02:41;;;;;;;6.18;2.08;;;9.40;99.90;;;;;;4998926;28;20049;-62
2023/05/03 07:05:07;;;;;;;4.80;1.35;;;9.40;99.90;;;;;;5016516;28;20040;-62
2023/05/03 07:07:33;;;;;;;3.88;1.50;;;9.50;99.90;;;;;;5024745;28;20057;-61
2023/05/03 07:09:59;;;;;;;5.03;1.42;;;9.50;99.90;;;;;;5023299;28;20500;-62
2023/05/03 07:12:27;;;;;;;5.70;1.13;;;9.50;99.90;;;;;;5005027;28;20064;-61
2023/05/03 07:14:56;;;;;;;4.57;1.20;;;9.50;99.90;;;;;;5021710;28;20665;-62
2023/05/03 07:17:22;;;;;;;4.22;1.20;;;9.50;99.90;;;;;;5002036;28;20518;-63
2023/05/03 07:19:52;;;;;;;5.28;1.50;;;9.50;99.90;;;;;;5026099;28;20029;-60
2023/05/03 07:22:23;;;;;;;4.25;2.40;;;9.60;99.90;;;;;;5022480;28;20132;-62
2023/05/03 07:24:53;;;;;;;5.53;2.08;;;9.60;99.90;;;;;;5024159;28;20033;-62
2023/05/03 07:27:19;;;;;;;3.90;1.15;;;9.70;99.90;;;;;;5023884;28;20049;-61
2023/05/03 07:29:45;;;;;;;4.90;2.22;;;9.70;99.90;;;;;;5022950;28;20128;-62
2023/05/03 07:32:11;;;;;;;3.28;1.00;;;9.80;99.90;;;;;;5022758;28;20128;-61
2023/05/03 07:34:37;;;;;;;3.65;1.30;;;9.80;99.90;;;;;;5019244;28;20050;-62
2023/05/03 07:37:03;;;;;;;3.72;1.13;;;9.80;99.90;;;;;;5022499;28;20041;-61
2023/05/03 07:39:29;;;;;;;4.32;1.10;;;9.80;99.90;;;;;;5022481;28;20113;-61
2023/05/03 07:41:55;;;;;;;2.53;1.17;;;9.80;99.90;;;;;;5005188;28;20041;-61
2023/05/03 07:44:21;;;;;;;5.78;1.17;;;9.80;99.90;;;;;;5018920;28;20412;-61
2023/05/03 07:46:47;;;;;;;5.05;1.40;;;9.90;99.90;;;;;;5024570;28;20136;-62
2023/05/03 07:49:12;;;;;;;2.95;1.40;;;10.00;99.90;;;;;;5025120;28;20099;-64
2023/05/03 07:51:38;;;;;;;2.70;1.30;;;10.00;99.90;;;;;;5024313;28;20047;-62
2023/05/03 07:54:04;;;;;;;4.40;1.30;;;10.00;99.90;;;;;;5036931;28;20056;-61
2023/05/03 07:56:30;;;;;;;3.90;1.15;;;10.00;99.90;;;;;;5021393;28;20055;-63
2023/05/03 07:58:56;;;;;;;4.28;1.45;;;10.00;99.90;;;;;;5021561;28;20124;-62
2023/05/03 08:01:23;;;;;;;5.47;1.60;;;10.00;99.90;;;;;;5020319;28;20522;-61
2023/05/03 08:03:51;;;;;;;5.50;1.42;;;10.10;99.90;;;;;;5021908;28;20139;-62
2023/05/03 08:06:17;;;;;;;5.55;1.40;;;10.10;99.90;;;;;;5021978;28;20827;-62
2023/05/03 08:08:43;;;;;;;5.05;1.50;;;10.00;99.90;;;;;;5021712;28;20030;-62
2023/05/03 08:11:09;;;;;;;7.00;1.75;;;10.10;99.90;;;;;;5026498;28;20053;-62
2023/05/03 08:13:36;;;;;;;3.83;1.10;;;10.20;99.90;;;;;;5024434;28;20037;-62
2023/05/03 08:16:02;;;;;;;4.32;1.10;;;10.20;99.90;;;;;;5025977;28;20049;-62
2023/05/03 08:18:28;;;;;;;6.93;1.45;;;10.10;99.90;;;;;;5019984;28;20041;-62
2023/05/03 08:20:54;;;;;;;3.38;1.40;;;10.10;99.90;;;;;;5023800;28;20053;-62
2023/05/03 08:23:20;;;;;;;5.45;1.45;;;10.20;99.90;;;;;;5026162;28;20362;-62
2023/05/03 08:25:47;;;;;;;6.85;1.63;;;10.20;99.90;;;;;;5024045;28;20513;-62
2023/05/03 08:28:13;;;;;;;4.13;1.40;;;10.30;99.90;;;;;;5028003;28;20531;-63
2023/05/03 08:30:39;;;;;;;4.30;1.40;;;10.30;99.90;;;;;;5018766;28;20041;-63
2023/05/03 08:33:08;;;;;;;4.28;1.52;;;10.40;99.90;;;;;;5023440;28;20050;-62
2023/05/03 08:35:34;;;;;;;3.95;1.50;;;10.40;99.90;;;;;;5028694;28;20050;-62
2023/05/03 08:38:00;;;;;;;8.20;1.73;;;10.50;99.90;;;;;;5022826;28;20041;-62
2023/05/03 08:40:27;;;;;;;4.93;1.50;;;10.60;99.90;;;;;;5024533;28;20120;-62
2023/05/03 08:42:55;;;;;;;5.20;1.45;;;10.50;99.90;;;;;;5010924;28;20040;-62
2023/05/03 08:45:22;;;;;;;3.85;1.38;;;10.50;99.90;;;;;;5004699;28;20113;-62
2023/05/03 08:47:53;;;;;;;5.95;1.75;;;10.50;99.90;;;;;;5021393;28;20044;-63
2023/05/03 08:50:19;;;;;;;4.28;1.50;;;10.60;99.90;;;;;;5025297;28;20439;-62
2023/05/03 08:52:45;;;;;;;4.88;1.60;;;10.70;99.90;;;;;;5026683;28;20060;-62
2023/05/03 08:55:12;;;;;;;5.97;1.92;;;10.70;99.90;;;;;;5026716;28;20033;-62
2023/05/03 08:57:38;;;;;;;4.75;1.67;;;10.70;99.90;;;;;;5027389;28;20072;-62
2023/05/03 09:00:09;;;;;;;3.38;1.90;;;10.80;99.90;;;;;;5024445;28;20045;-63
2023/05/03 09:02:37;;;;;;;5.97;1.67;;;10.70;99.90;;;;;;5019924;28;20365;-62
2023/05/03 09:05:05;;;;;;;4.03;1.65;;;10.70;99.90;;;;;;5028564;28;20562;-61
2023/05/03 09:07:31;;;;;;;4.10;1.55;;;10.80;99.90;;;;;;5025623;28;20106;-62
2023/05/03 09:09:59;;;;;;;4.65;1.90;;;10.80;99.90;;;;;;5024807;28;20041;-61
2023/05/03 09:12:39;;;;;;;4.70;1.70;;;10.80;99.90;;;;;;5027733;28;20045;-62
2023/05/03 09:15:06;;;;;;;5.75;1.38;;;10.80;99.90;;;;;;5026524;28;20045;-61
2023/05/03 09:17:32;;;;;;;3.83;1.70;;;10.90;99.90;;;;;;5031435;28;20373;-63
2023/05/03 09:19:59;;;;;;;5.35;2.28;;;10.80;99.90;;;;;;5021545;28;20049;-60
2023/05/03 09:22:27;;;;;;;3.67;1.83;;;10.90;99.90;;;;;;5028239;28;20046;-61
2023/05/03 09:24:55;;;;;;;5.28;1.85;;;10.90;99.90;;;;;;5014933;28;20072;-62
2023/05/03 09:27:22;;;;;;;5.97;1.63;;;10.80;99.90;;;;;;5023806;28;20041;-62
2023/05/03 09:29:49;;;;;;;5.18;1.40;;;10.80;99.90;;;;;;5022427;28;20679;-61
2023/05/03 09:32:15;;;;;;;4.53;1.52;;;10.80;99.90;;;;;;5028732;28;20543;-62
2023/05/03 09:34:42;;;;;;;8.25;1.70;;;10.90;99.90;;;;;;5018761;28;20053;-62
2023/05/03 09:37:08;;;;;;;5.65;1.88;;;10.90;99.90;;;;;;5023012;28;20042;-65
2023/05/03 09:39:35;;;;;;;6.70;1.92;;;10.90;99.90;;;;;;5024532;28;20057;-61
2023/05/03 09:42:13;;;;;;;5.07;1.70;;;10.90;99.90;;;;;;5027397;28;20045;-63
2023/05/03 09:44:42;;;;;;;5.07;1.85;;;10.90;99.90;;;;;;5027368;28;20046;-61
2023/05/03 09:47:09;;;;;;;6.15;1.45;;;11.00;99.90;;;;;;5026418;28;20542;-64
2023/05/03 09:49:37;;;;;;;4.65;1.48;;;11.00;99.90;;;;;;5032090;28;20077;-62
2023/05/03 09:52:05;;;;;;;3.63;1.67;;;11.00;99.90;;;;;;5025005;28;20373;-62
2023/05/03 09:54:31;;;;;;;8.93;2.70;;;10.90;99.90;;;;;;5026868;28;20068;-60
2023/05/03 09:56:56;;;;;;;5.10;1.60;;;10.90;99.90;;;;;;5022785;28;20124;-64
2023/05/03 09:59:22;;;;;;;2.75;1.38;;;10.90;99.90;;;;;;5022377;28;20041;-62
2023/05/03 10:01:51;;;;;;;3.55;1.60;;;10.90;99.90;;;;;;5024739;28;20645;-61
2023/05/03 10:04:19;;;;;;;3.78;1.60;;;11.00;99.90;;;;;;5023977;28;20121;-62
2023/05/03 10:06:48;;;;;;;5.75;1.65;;;11.00;99.90;;;;;;5026261;28;20486;-62
2023/05/03 10:09:27;;;;;;;6.90;1.70;;;11.00;99.90;;;;;;5024087;28;20040;-64
2023/05/03 10:11:57;;;;;;;5.68;2.13;;;11.00;99.90;;;;;;5016192;28;20126;-62
2023/05/03 10:14:23;;;;;;;5.50;2.20;;;11.00;99.90;;;;;;5027601;28;20042;-62
2023/05/03 10:16:56;;;;;;;9.90;1.90;;;11.10;99.90;;;;;;5024587;28;20056;-61
2023/05/03 10:19:40;;;;;;;3.45;1.70;;;11.20;99.90;;;;;;5016804;28;20053;-63
2023/05/03 10:22:10;;;;;;;3.63;1.35;;;11.20;99.90;;;;;;5022199;28;20037;-61
2023/05/03 10:24:37;;;;;;;5.78;1.83;;;11.20;99.90;;;;;;5046197;28;20498;-62
2023/05/03 10:27:10;;;;;;;4.50;1.67;;;11.20;99.90;;;;;;5023616;28;20042;-62
2023/05/03 10:29:37;;;;;;;3.88;1.63;;;11.20;99.90;;;;;;5025233;28;20124;-62
2023/05/03 10:32:04;;;;;;;4.38;1.33;;;11.20;99.90;;;;;;5021629;28;20076;-62
2023/05/03 10:34:35;;;;;;;4.05;1.55;;;11.20;99.90;;;;;;5026450;28;20048;-62
2023/05/03 10:37:07;;;;;;;3.50;1.73;;;11.20;99.90;;;;;;5020824;28;20049;-62
2023/05/03 10:39:32;;;;;;;4.82;1.70;;;11.30;99.90;;;;;;5025422;28;20045;-62
2023/05/03 10:42:07;;;;;;;10.10;2.42;;;11.40;99.90;;;;;;5008150;28;20400;-62
2023/05/03 10:44:50;;;;;;;5.75;1.77;;;11.40;99.80;;;;;;5023988;28;20032;-60
2023/05/03 10:47:17;;;;;;;5.55;1.45;;;11.30;99.70;;;;;;5021787;28;20121;-66
2023/05/03 10:49:43;;;;;;;5.30;1.65;;;11.30;99.90;;;;;;5024993;28;20677;-62
2023/05/03 10:52:34;;;;;;;4.60;1.70;;;11.40;99.90;;;;;;5021786;28;20060;-61
2023/05/03 10:55:01;;;;;;;4.00;1.60;;;11.50;99.90;;;;;;5025044;28;20315;-63
2023/05/03 10:57:31;;;;;;;3.08;1.42;;;11.50;99.60;;;;;;5026640;28;20065;-62
2023/05/03 10:59:57;;;;;;;3.85;1.38;;;11.50;99.60;;;;;;5024794;28;20033;-61
2023/05/03 11:02:32;;;;;;;3.40;1.50;;;11.60;99.60;;;;;;5025215;28;20179;-61
2023/05/03 11:05:02;;;;;;;3.78;1.40;;;11.60;99.60;;;;;;5016865;28;20570;-61
2023/05/03 11:07:28;;;;;;;5.57;1.63;;;11.60;99.50;;;;;;5024198;28;20416;-61
2023/05/03 11:09:55;;;;;;;3.40;1.40;;;11.50;99.20;;;;;;5021452;28;20030;-61
2023/05/03 11:12:20;;;;;;;6.30;1.60;;;11.60;99.30;;;;;;5020149;28;20643;-61
2023/05/03 11:14:48;;;;;;;2.58;1.45;;;11.60;99.10;;;;;;5024210;28;20033;-61
2023/05/03 11:17:14;;;;;;;2.80;1.48;;;11.60;99.10;;;;;;5020716;28;20468;-62
2023/05/03 11:19:45;;;;;;;9.32;1.65;;;11.60;99.40;;;;;;5020540;28;20049;-61
2023/05/03 11:22:11;;;;;;;6.32;1.42;;;11.80;99.30;;;;;;5018082;28;20045;-61
2023/05/03 11:24:37;;;;;;;5.00;1.35;;;11.80;99.20;;;;;;5001576;28;20049;-61
2023/05/03 11:27:03;;;;;;;5.97;1.40;;;11.90;99.20;;;;;;5026926;28;20053;-62
2023/05/03 11:29:30;;;;;;;3.15;1.25;;;12.00;99.30;;;;;;5021312;28;20436;-61
2023/05/03 11:31:56;;;;;;;3.92;1.63;;;12.10;99.10;;;;;;5025833;28;20037;-62
2023/05/03 11:34:21;;;;;;;3.80;1.17;;;12.10;98.50;;;;;;5016587;28;20034;-63
2023/05/03 11:36:48;;;;;;;3.88;1.40;;;12.20;98.80;;;;;;5023572;28;20099;-60
2023/05/03 11:39:14;;;;;;;4.25;1.38;;;12.30;98.50;;;;;;5023510;28;20044;-61
2023/05/03 11:41:41;;;;;;;5.38;1.65;;;12.30;98.60;;;;;;5022930;28;20182;-68
2023/05/03 11:44:07;;;;;;;3.40;1.60;;;12.40;98.30;;;;;;5024992;28;20037;-62
2023/05/03 11:46:36;;;;;;;5.60;1.77;;;12.40;98.00;;;;;;5023272;28;20542;-63
2023/05/03 11:49:02;;;;;;;3.10;1.52;;;12.50;98.30;;;;;;5020601;28;20049;-62
2023/05/03 11:51:28;;;;;;;4.03;1.48;;;12.60;97.40;;;;;;5024339;28;20045;-61
2023/05/03 11:53:55;;;;;;;5.72;1.52;;;12.50;97.40;;;;;;5022070;28;20033;-61
2023/05/03 11:56:21;;;;;;;7.10;1.75;;;12.50;97.30;;;;;;5025171;28;20051;-64
2023/05/03 11:58:53;;;;;;;4.65;1.63;;;12.60;97.60;;;;;;5022221;28;20077;-63
2023/05/03 12:01:22;;;;;;;5.15;1.90;;;12.70;97.40;;;;;;5023611;28;20091;-62
2023/05/03 12:03:55;;;;;;;5.93;1.25;;;12.80;97.50;;;;;;5026555;28;20037;-63
2023/05/03 12:06:21;;;;;;;2.70;1.25;;;13.10;97.90;;;;;;5024284;28;20045;-65
2023/05/03 12:08:47;;;;;;;5.95;2.42;;;13.50;97.60;;;;;;5018946;28;20469;-62
2023/05/03 12:11:13;;;;;;;3.63;1.65;;;13.60;96.70;;;;;;5038777;28;20100;-62
2023/05/03 12:13:39;;;;;;;3.53;1.60;;;13.70;96.70;;;;;;5022615;28;20034;-62
2023/05/03 12:16:06;;;;;;;5.22;1.60;;;13.90;96.70;;;;;;5020192;28;20421;-62
2023/05/03 12:19:04;;;;;;;2.70;1.58;;;14.20;96.50;;;;;;5021053;28;20551;-64
2023/05/03 12:21:47;;;;;;;3.30;1.20;;;14.00;95.20;;;;;;5008329;28;20053;-60
2023/05/03 12:24:17;;;;;;;5.28;1.75;;;13.90;95.80;;;;;;5022644;28;20044;-62
2023/05/03 12:26:46;;;;;;;3.00;1.30;;;14.00;95.80;;;;;;5020209;28;20064;-61
2023/05/03 12:29:12;;;;;;;5.10;1.40;;;13.90;95.20;;;;;;5020760;28;20075;-61
2023/05/03 12:31:41;;;;;;;4.80;1.30;;;13.70;95.40;;;;;;5029514;28;20041;-61
2023/05/03 12:34:07;;;;;;;5.60;1.40;;;13.40;95.20;;;;;;5004146;28;20631;-62
2023/05/03 12:36:34;;;;;;;5.30;1.58;;;13.50;95.60;;;;;;5025562;28;20211;-62
2023/05/03 12:39:00;;;;;;;2.72;1.25;;;13.70;96.30;;;;;;5025091;28;20048;-60
2023/05/03 12:41:28;;;;;;;6.88;1.63;;;14.10;96.20;;;;;;5004668;28;20053;-61
2023/05/03 12:43:57;;;;;;;4.65;1.73;;;14.40;95.60;;;;;;5010865;28;20396;-61
2023/05/03 12:46:23;;;;;;;2.92;1.20;;;14.60;94.90;;;;;;5004085;28;20033;-63
2023/05/03 12:48:51;;;;;;;6.93;1.95;;;14.80;94.30;;;;;;5012025;28;20102;-60
2023/05/03 12:51:17;;;;;;;5.07;1.67;;;14.70;94.70;;;;;;5021593;28;20045;-62
2023/05/03 12:53:44;;;;;;;3.17;1.60;;;14.70;94.60;;;;;;5024798;28;20999;-63
2023/05/03 12:56:10;;;;;;;3.70;1.60;;;14.50;94.90;;;;;;5027694;28;20037;-62